Time;durP1;ratioP1;P1;durP2;ratioP2;P2;SDS_P1;SDS_P2;PMS_P1;PMS_P2;Temp;Humidity;BMP_temperature;BMP_pressure;BME280_temperature;BME280_humidity;BME280_pressure;Samples;Min_cycle;Max_cycle;Signal;HPM_P1;HPM_P2
2022/01/26 00:07:54;;;;;;;14.63;8.13;;;;;;;;;;5016112;28;20279;-78
2022/01/26 00:10:20;;;;;;;16.53;8.60;;;;;;;;;;5014522;28;20167;-78
2022/01/26 00:12:46;;;;;;;16.40;8.93;;;;;;;;;;5014393;28;20661;-78
2022/01/26 00:15:12;;;;;;;14.60;7.97;;;;;;;;;;5013795;28;20215;-78
2022/01/26 00:17:38;;;;;;;15.13;8.93;;;;;;;;;;5015431;28;20175;-78
2022/01/26 00:20:18;;;;;;;20.50;9.33;;;;;;;;;;4997984;28;20186;-78
2022/01/26 00:25:35;;;;;;;17.80;8.80;;;;;;;;;;5013753;28;20265;-78
2022/01/26 00:38:42;;;;;;;16.57;8.57;;;;;;;;;;5015087;28;20271;-78
2022/01/26 00:41:13;;;;;;;16.60;8.47;;;;;;;;;;5030243;28;20180;-78
2022/01/26 00:43:46;;;;;;;16.87;8.43;;;;;;;;;;4997755;28;20230;-78
2022/01/26 00:46:12;;;;;;;14.53;8.97;;;;;;;;;;5030220;28;20219;-78
2022/01/26 00:48:38;;;;;;;17.63;8.67;;;;;;;;;;5029933;28;20657;-78
2022/01/26 00:51:06;;;;;;;16.67;8.53;;;;;;;;;;5030057;28;20608;-78
2022/01/26 00:53:35;;;;;;;14.77;8.37;;;;;;;;;;5029843;28;20250;-78
2022/01/26 00:56:02;;;;;;;18.87;8.50;;;;;;;;;;5014837;28;20261;-78
2022/01/26 00:58:28;;;;;;;17.27;8.33;;;;;;;;;;4997100;28;20177;-78
2022/01/26 01:00:55;;;;;;;18.10;8.83;;;;;;;;;;5029635;28;20179;-78
2022/01/26 01:03:22;;;;;;;17.87;8.47;;;;;;;;;;5029587;28;20709;-78
2022/01/26 01:05:59;;;;;;;16.67;8.80;;;;;;;;;;5029388;28;20237;-77
2022/01/26 01:08:25;;;;;;;18.97;9.80;;;;;;;;;;4998656;28;20673;-78
2022/01/26 01:10:53;;;;;;;14.87;7.40;;;;;;;;;;5029819;28;20180;-78
2022/01/26 01:13:22;;;;;;;16.07;8.73;;;;;;;;;;4996856;28;20202;-78
2022/01/26 01:15:50;;;;;;;18.27;8.73;;;;;;;;;;4997339;28;20222;-78
2022/01/26 01:18:22;;;;;;;15.03;7.87;;;;;;;;;;5029444;28;20175;-78
2022/01/26 01:28:53;;;;;;;14.47;7.77;;;;;;;;;;5014379;28;20183;-77
2022/01/26 01:34:04;;;;;;;14.90;7.83;;;;;;;;;;5013977;28;20237;-78
2022/01/26 01:36:30;;;;;;;16.40;7.60;;;;;;;;;;5029155;28;20301;-78
2022/01/26 01:38:57;;;;;;;15.30;7.73;;;;;;;;;;4996534;28;20176;-78
2022/01/26 01:41:23;;;;;;;15.97;7.23;;;;;;;;;;5029107;28;20182;-77
2022/01/26 01:43:49;;;;;;;14.10;7.50;;;;;;;;;;4995907;28;20556;-78
2022/01/26 01:46:15;;;;;;;15.47;7.50;;;;;;;;;;5028944;28;20179;-78
2022/01/26 01:48:41;;;;;;;13.47;7.17;;;;;;;;;;4996110;28;20183;-78
2022/01/26 01:51:10;;;;;;;14.80;8.07;;;;;;;;;;5028901;28;20178;-78
2022/01/26 01:53:42;;;;;;;14.67;7.17;;;;;;;;;;4996321;28;20190;-78
2022/01/26 01:56:09;;;;;;;14.73;7.07;;;;;;;;;;5028940;28;20203;-78
2022/01/26 01:58:36;;;;;;;14.63;7.20;;;;;;;;;;5028602;28;20163;-77
2022/01/26 02:01:02;;;;;;;15.73;8.53;;;;;;;;;;4995270;28;20171;-77
2022/01/26 02:03:28;;;;;;;15.03;7.37;;;;;;;;;;4995997;28;20182;-77
2022/01/26 02:05:54;;;;;;;15.33;7.70;;;;;;;;;;4995702;28;20199;-77
2022/01/26 02:08:20;;;;;;;16.07;7.80;;;;;;;;;;5028420;28;20607;-77
2022/01/26 02:10:46;;;;;;;18.40;8.23;;;;;;;;;;4995930;28;20182;-78
2022/01/26 02:13:33;;;;;;;16.47;8.03;;;;;;;;;;4995947;28;20297;-77
2022/01/26 02:16:11;;;;;;;16.33;8.17;;;;;;;;;;4998175;28;20293;-78
2022/01/26 02:52:03;;;;;;;18.50;9.20;;;;;;;;;;5012845;28;20186;-78
2022/01/26 03:07:03;;;;;;;17.43;9.20;;;;;;;;;;5012910;28;20266;-78
2022/01/26 03:09:38;;;;;;;17.23;8.97;;;;;;;;;;5011464;28;20175;-78
2022/01/26 03:12:06;;;;;;;21.80;10.70;;;;;;;;;;4998724;28;20213;-78
2022/01/26 03:14:46;;;;;;;17.77;9.47;;;;;;;;;;5031460;28;20201;-78
2022/01/26 03:19:56;;;;;;;16.73;9.33;;;;;;;;;;5015414;28;20171;-78
2022/01/26 03:28:18;;;;;;;19.73;10.27;;;;;;;;;;5031749;28;20285;-78
2022/01/26 03:35:58;;;;;;;21.70;10.53;;;;;;;;;;5016245;28;20616;-77
2022/01/26 03:38:29;;;;;;;20.37;10.43;;;;;;;;;;5031401;28;20563;-78
2022/01/26 03:41:13;;;;;;;17.43;10.17;;;;;;;;;;5031367;28;20258;-77
2022/01/26 03:43:39;;;;;;;20.70;10.63;;;;;;;;;;5015960;28;20622;-78
2022/01/26 03:46:05;;;;;;;21.47;10.57;;;;;;;;;;4998694;28;20661;-78
2022/01/26 03:48:31;;;;;;;19.53;10.93;;;;;;;;;;5031347;28;20555;-78
2022/01/26 03:50:57;;;;;;;18.23;9.97;;;;;;;;;;5031312;28;20243;-78
2022/01/26 03:53:23;;;;;;;21.57;10.97;;;;;;;;;;5030938;28;20554;-78
2022/01/26 03:55:49;;;;;;;20.27;10.70;;;;;;;;;;4998156;28;20678;-78
2022/01/26 03:58:15;;;;;;;20.87;11.37;;;;;;;;;;4998550;28;20187;-78
2022/01/26 04:00:41;;;;;;;24.07;11.67;;;;;;;;;;5031194;28;20626;-78
2022/01/26 04:03:07;;;;;;;19.53;10.53;;;;;;;;;;5015595;28;20228;-78
2022/01/26 04:05:33;;;;;;;22.03;10.53;;;;;;;;;;4997507;28;20210;-78
2022/01/26 04:08:01;;;;;;;20.27;11.20;;;;;;;;;;4998068;28;20225;-78
2022/01/26 04:10:51;;;;;;;22.20;11.43;;;;;;;;;;4998299;28;20187;-78
2022/01/26 04:13:13;;;;;;;21.37;11.10;;;;;;;;;;5015932;28;20191;-78
2022/01/26 04:15:39;;;;;;;18.90;10.83;;;;;;;;;;5015457;28;20211;-78
2022/01/26 04:18:09;;;;;;;19.63;11.03;;;;;;;;;;4997928;28;20179;-78
2022/01/26 04:20:40;;;;;;;20.27;10.83;;;;;;;;;;5030725;28;20211;-78
2022/01/26 04:23:21;;;;;;;21.67;11.87;;;;;;;;;;5030002;28;20182;-78
2022/01/26 04:25:49;;;;;;;21.17;11.00;;;;;;;;;;4999938;28;20207;-78
2022/01/26 04:28:21;;;;;;;24.50;12.40;;;;;;;;;;5030379;28;20194;-78
2022/01/26 04:30:48;;;;;;;21.53;11.10;;;;;;;;;;4998660;28;20192;-77
2022/01/26 04:33:14;;;;;;;22.90;12.13;;;;;;;;;;4997462;28;20186;-78
2022/01/26 04:35:43;;;;;;;21.33;11.57;;;;;;;;;;5030288;28;20265;-78
2022/01/26 04:38:19;;;;;;;23.40;11.13;;;;;;;;;;4998176;28;20224;-78
2022/01/26 04:43:25;;;;;;;22.60;11.33;;;;;;;;;;5014041;28;20187;-78
2022/01/26 04:45:51;;;;;;;20.47;10.67;;;;;;;;;;5029854;28;20210;-77
2022/01/26 04:48:19;;;;;;;20.43;11.13;;;;;;;;;;4997222;28;20198;-77
2022/01/26 04:50:45;;;;;;;21.53;11.57;;;;;;;;;;5030189;28;20602;-78
2022/01/26 04:53:11;;;;;;;20.40;11.10;;;;;;;;;;5030076;28;20181;-78
2022/01/26 04:55:37;;;;;;;20.10;10.97;;;;;;;;;;4996979;28;20223;-78
2022/01/26 04:58:03;;;;;;;21.13;11.20;;;;;;;;;;5029920;28;20664;-78
2022/01/26 05:00:29;;;;;;;21.83;11.17;;;;;;;;;;5029837;28;20646;-78
2022/01/26 05:02:55;;;;;;;21.07;12.00;;;;;;;;;;4997171;28;20183;-78
2022/01/26 05:05:21;;;;;;;23.30;12.87;;;;;;;;;;4996346;28;20226;-78
2022/01/26 05:07:47;;;;;;;20.13;11.00;;;;;;;;;;5029745;28;20229;-77
2022/01/26 05:10:13;;;;;;;22.23;11.30;;;;;;;;;;4996830;28;20183;-78
2022/01/26 05:12:40;;;;;;;23.50;11.50;;;;;;;;;;5029722;28;20183;-78
2022/01/26 05:15:06;;;;;;;23.30;11.63;;;;;;;;;;5029185;28;20214;-78
2022/01/26 05:17:32;;;;;;;21.40;11.70;;;;;;;;;;5029586;28;20624;-78
2022/01/26 05:20:00;;;;;;;24.50;12.73;;;;;;;;;;5029482;28;20175;-78
2022/01/26 05:22:27;;;;;;;24.57;12.17;;;;;;;;;;5029666;28;20183;-77
2022/01/26 05:24:53;;;;;;;22.73;10.63;;;;;;;;;;4996451;28;20203;-78
2022/01/26 05:27:19;;;;;;;23.00;11.37;;;;;;;;;;4996571;28;20179;-77
2022/01/26 05:29:45;;;;;;;23.57;12.33;;;;;;;;;;4996707;28;20190;-78
2022/01/26 05:32:11;;;;;;;19.60;10.93;;;;;;;;;;4996678;28;20198;-78
2022/01/26 05:34:37;;;;;;;19.93;10.93;;;;;;;;;;5012684;28;20290;-78
2022/01/26 05:37:04;;;;;;;21.20;11.23;;;;;;;;;;5014019;28;20552;-78
2022/01/26 05:39:32;;;;;;;20.40;11.83;;;;;;;;;;5029059;28;20198;-78
2022/01/26 05:41:58;;;;;;;19.40;10.33;;;;;;;;;;4996670;28;20210;-78
2022/01/26 05:44:24;;;;;;;19.17;10.60;;;;;;;;;;4996112;28;20202;-78
2022/01/26 05:46:50;;;;;;;18.30;10.40;;;;;;;;;;5029176;28;20186;-78
2022/01/26 05:49:18;;;;;;;20.13;10.53;;;;;;;;;;5029089;28;20191;-78
2022/01/26 05:51:47;;;;;;;19.00;10.13;;;;;;;;;;5028967;28;20182;-78
2022/01/26 05:54:15;;;;;;;18.77;10.47;;;;;;;;;;5028706;28;20221;-78
2022/01/26 05:56:42;;;;;;;17.10;9.87;;;;;;;;;;5028681;28;20226;-78
2022/01/26 05:59:08;;;;;;;18.83;10.23;;;;;;;;;;4996127;28;20183;-78
2022/01/26 06:01:34;;;;;;;20.60;10.67;;;;;;;;;;5028604;28;20224;-78
2022/01/26 06:04:00;;;;;;;20.87;10.80;;;;;;;;;;4995402;28;20266;-78
2022/01/26 06:06:26;;;;;;;17.53;10.07;;;;;;;;;;4995939;28;20333;-78
2022/01/26 06:08:52;;;;;;;15.23;8.50;;;;;;;;;;5028570;28;20194;-77
2022/01/26 06:11:18;;;;;;;15.33;8.83;;;;;;;;;;5028319;28;20729;-77
2022/01/26 06:13:45;;;;;;;16.27;9.43;;;;;;;;;;5028252;28;20552;-77
2022/01/26 06:16:11;;;;;;;18.07;9.17;;;;;;;;;;5028133;28;20206;-77
2022/01/26 06:18:37;;;;;;;15.77;9.30;;;;;;;;;;5011892;28;20183;-77
2022/01/26 06:21:03;;;;;;;18.03;9.63;;;;;;;;;;4995444;28;20175;-78
2022/01/26 06:23:29;;;;;;;16.50;9.70;;;;;;;;;;5011581;28;20175;-77
2022/01/26 06:25:57;;;;;;;18.13;9.53;;;;;;;;;;4995303;28;20202;-78
2022/01/26 06:28:26;;;;;;;18.53;9.67;;;;;;;;;;4995554;28;20271;-78
2022/01/26 06:30:55;;;;;;;17.33;10.30;;;;;;;;;;5012879;28;20178;-78
2022/01/26 06:33:22;;;;;;;18.27;9.93;;;;;;;;;;5028054;28;20186;-77
2022/01/26 06:35:48;;;;;;;19.77;9.87;;;;;;;;;;5027819;28;20206;-78
2022/01/26 06:38:15;;;;;;;19.83;10.90;;;;;;;;;;5027982;28;20175;-78
2022/01/26 06:40:41;;;;;;;19.53;11.10;;;;;;;;;;5027960;28;20175;-78
2022/01/26 06:43:11;;;;;;;19.60;10.20;;;;;;;;;;5012701;28;20171;-77
2022/01/26 06:45:45;;;;;;;18.17;10.57;;;;;;;;;;5027444;28;20203;-77
2022/01/26 06:50:56;;;;;;;19.07;10.57;;;;;;;;;;5012890;28;20248;-77
2022/01/26 06:53:21;;;;;;;20.07;10.50;;;;;;;;;;4995097;28;20245;-77
2022/01/26 06:55:48;;;;;;;22.23;11.50;;;;;;;;;;4995461;28;20219;-77
2022/01/26 06:58:15;;;;;;;18.53;11.13;;;;;;;;;;5027635;28;20199;-77
2022/01/26 07:00:41;;;;;;;21.13;11.70;;;;;;;;;;5011310;28;20202;-77
2022/01/26 07:03:07;;;;;;;21.33;10.60;;;;;;;;;;5027667;28;20262;-77
2022/01/26 07:05:33;;;;;;;19.20;10.07;;;;;;;;;;4994242;28;20271;-77
2022/01/26 07:07:59;;;;;;;17.20;8.80;;;;;;;;;;4994864;28;20189;-77
2022/01/26 07:10:25;;;;;;;19.30;9.90;;;;;;;;;;4994930;28;20179;-77
2022/01/26 07:12:51;;;;;;;19.50;10.23;;;;;;;;;;4994813;28;20179;-77
2022/01/26 07:23:37;;;;;;;19.80;10.87;;;;;;;;;;5011450;28;20194;-77
2022/01/26 07:26:04;;;;;;;18.23;9.87;;;;;;;;;;5027384;28;20203;-76
2022/01/26 07:28:35;;;;;;;19.07;9.93;;;;;;;;;;5027360;28;20187;-77
2022/01/26 07:31:01;;;;;;;17.27;10.17;;;;;;;;;;5011150;28;20547;-77
2022/01/26 07:33:27;;;;;;;21.13;9.33;;;;;;;;;;4994681;28;20282;-77
2022/01/26 07:35:53;;;;;;;21.30;10.80;;;;;;;;;;4994383;28;20309;-77
2022/01/26 07:38:19;;;;;;;23.73;12.43;;;;;;;;;;4994551;28;20261;-76
2022/01/26 07:40:45;;;;;;;19.77;10.97;;;;;;;;;;5027265;28;20379;-77
2022/01/26 07:43:11;;;;;;;22.70;12.20;;;;;;;;;;4994648;28;20175;-76
2022/01/26 07:45:37;;;;;;;16.73;9.80;;;;;;;;;;4994434;28;20206;-78
2022/01/26 07:48:04;;;;;;;23.93;12.20;;;;;;;;;;4994573;28;20187;-78
2022/01/26 07:50:30;;;;;;;25.87;13.37;;;;;;;;;;4994683;28;20721;-78
2022/01/26 07:52:57;;;;;;;19.60;9.07;;;;;;;;;;5027254;28;20226;-77
2022/01/26 07:55:24;;;;;;;19.43;10.13;;;;;;;;;;4994414;28;20226;-77
2022/01/26 07:57:51;;;;;;;21.90;11.23;;;;;;;;;;5011107;28;20185;-78
2022/01/26 08:00:17;;;;;;;21.97;11.83;;;;;;;;;;4998347;28;20182;-77
2022/01/26 08:02:44;;;;;;;19.83;11.27;;;;;;;;;;5030916;28;20190;-78
2022/01/26 08:05:11;;;;;;;30.87;15.87;;;;;;;;;;4997518;28;20305;-78
2022/01/26 08:07:37;;;;;;;31.40;16.67;;;;;;;;;;5030767;28;20271;-78
2022/01/26 08:10:03;;;;;;;21.33;11.50;;;;;;;;;;5030574;28;20209;-78
2022/01/26 08:12:29;;;;;;;45.43;20.53;;;;;;;;;;5030717;28;20269;-78
2022/01/26 08:14:55;;;;;;;24.63;11.90;;;;;;;;;;4997586;28;20302;-78
2022/01/26 08:17:21;;;;;;;28.83;14.33;;;;;;;;;;4997761;28;20329;-78
2022/01/26 08:19:51;;;;;;;27.80;13.30;;;;;;;;;;5030623;28;20723;-78
2022/01/26 08:22:19;;;;;;;23.93;12.40;;;;;;;;;;4998378;28;20179;-78
2022/01/26 08:24:45;;;;;;;20.23;10.33;;;;;;;;;;4997887;28;20274;-78
2022/01/26 08:27:14;;;;;;;21.97;10.53;;;;;;;;;;5030532;28;20183;-78
2022/01/26 08:29:47;;;;;;;32.00;14.93;;;;;;;;;;5030477;28;20177;-78
2022/01/26 08:32:13;;;;;;;27.03;13.27;;;;;;;;;;5015113;28;20276;-77
2022/01/26 08:34:40;;;;;;;20.83;11.23;;;;;;;;;;4998741;28;20246;-78
2022/01/26 08:37:06;;;;;;;24.67;11.70;;;;;;;;;;5021295;28;20205;-77
2022/01/26 08:39:35;;;;;;;22.17;11.27;;;;;;;;;;5030271;28;20229;-77
2022/01/26 08:42:01;;;;;;;43.00;18.77;;;;;;;;;;5030139;28;20182;-78
2022/01/26 08:44:28;;;;;;;24.57;12.63;;;;;;;;;;5029688;28;20595;-78
2022/01/26 08:46:54;;;;;;;25.30;12.97;;;;;;;;;;5030125;28;20179;-78
2022/01/26 08:49:21;;;;;;;38.63;16.43;;;;;;;;;;5030125;28;20187;-78
2022/01/26 08:51:49;;;;;;;29.03;13.27;;;;;;;;;;5029741;28;20190;-78
2022/01/26 08:54:16;;;;;;;23.77;11.63;;;;;;;;;;5013979;28;20223;-78
2022/01/26 08:56:42;;;;;;;38.43;17.73;;;;;;;;;;5030037;28;20205;-78
2022/01/26 08:59:08;;;;;;;24.90;11.37;;;;;;;;;;5030213;28;20633;-78
2022/01/26 09:01:34;;;;;;;22.23;10.27;;;;;;;;;;5029974;28;20186;-78
2022/01/26 09:04:00;;;;;;;29.73;13.17;;;;;;;;;;5029355;28;20186;-78
2022/01/26 09:06:26;;;;;;;17.80;9.27;;;;;;;;;;5029112;28;20651;-78
2022/01/26 09:09:00;;;;;;;19.77;9.77;;;;;;;;;;5029508;28;20190;-78
2022/01/26 09:11:26;;;;;;;24.57;10.80;;;;;;;;;;5029672;28;20638;-78
2022/01/26 09:13:57;;;;;;;32.37;12.80;;;;;;;;;;5029163;28;20204;-78
2022/01/26 09:16:25;;;;;;;36.53;15.47;;;;;;;;;;5029390;28;20202;-78
2022/01/26 09:18:54;;;;;;;21.70;10.23;;;;;;;;;;5029199;28;20658;-78
2022/01/26 09:21:25;;;;;;;17.60;9.07;;;;;;;;;;5029213;28;20186;-78
2022/01/26 09:23:51;;;;;;;24.80;12.00;;;;;;;;;;5013802;28;20293;-78
2022/01/26 09:26:18;;;;;;;30.90;14.43;;;;;;;;;;5029185;28;20190;-78
2022/01/26 09:28:44;;;;;;;22.47;11.70;;;;;;;;;;5014287;28;20175;-78
2022/01/26 09:31:10;;;;;;;26.20;13.30;;;;;;;;;;5028940;28;20206;-78
2022/01/26 09:33:36;;;;;;;23.33;10.83;;;;;;;;;;5028922;28;20187;-78
2022/01/26 09:36:03;;;;;;;17.10;7.67;;;;;;;;;;5029052;28;20664;-78
2022/01/26 09:38:29;;;;;;;18.47;8.73;;;;;;;;;;5028947;28;20232;-77
2022/01/26 09:40:55;;;;;;;26.83;13.97;;;;;;;;;;5028984;28;20178;-78
2022/01/26 09:43:21;;;;;;;19.37;9.97;;;;;;;;;;5028753;28;20599;-78
2022/01/26 09:45:47;;;;;;;23.37;11.20;;;;;;;;;;5028600;28;20210;-78
2022/01/26 09:48:13;;;;;;;17.33;8.70;;;;;;;;;;5029041;28;20179;-78
2022/01/26 09:50:44;;;;;;;19.43;9.53;;;;;;;;;;5028677;28;20561;-78
2022/01/26 09:53:12;;;;;;;27.70;12.43;;;;;;;;;;5028614;28;20252;-78
2022/01/26 09:55:44;;;;;;;16.93;7.77;;;;;;;;;;5028019;28;20304;-78
2022/01/26 09:58:11;;;;;;;14.00;7.83;;;;;;;;;;5028571;28;20185;-78
2022/01/26 10:00:37;;;;;;;15.60;7.70;;;;;;;;;;5013281;28;20202;-78
2022/01/26 10:03:05;;;;;;;12.47;7.07;;;;;;;;;;5028740;28;20170;-78
2022/01/26 10:05:42;;;;;;;15.80;9.37;;;;;;;;;;5028046;28;20205;-78
2022/01/26 10:16:02;;;;;;;15.47;8.47;;;;;;;;;;5012983;28;20279;-78
2022/01/26 10:18:30;;;;;;;15.33;8.03;;;;;;;;;;5028336;28;20213;-78
2022/01/26 10:20:57;;;;;;;15.07;8.40;;;;;;;;;;5027734;28;20186;-78
2022/01/26 10:23:25;;;;;;;16.93;8.70;;;;;;;;;;5027839;28;20178;-78
2022/01/26 10:26:04;;;;;;;15.93;8.87;;;;;;;;;;5028214;28;20205;-78
2022/01/26 10:28:44;;;;;;;14.40;8.27;;;;;;;;;;5028157;28;20178;-78
2022/01/26 10:31:13;;;;;;;15.43;8.67;;;;;;;;;;5028097;28;20181;-78
2022/01/26 10:33:39;;;;;;;18.07;9.83;;;;;;;;;;5012502;28;20261;-78
2022/01/26 10:36:05;;;;;;;19.70;9.43;;;;;;;;;;5028104;28;20316;-78
2022/01/26 10:38:31;;;;;;;20.13;10.70;;;;;;;;;;5028050;28;20235;-78
2022/01/26 10:41:00;;;;;;;17.20;8.67;;;;;;;;;;5028104;28;20527;-78
2022/01/26 10:43:29;;;;;;;18.77;9.63;;;;;;;;;;5027402;28;20174;-77
2022/01/26 10:45:58;;;;;;;18.83;9.40;;;;;;;;;;5027315;28;20202;-77
2022/01/26 10:48:37;;;;;;;16.03;9.30;;;;;;;;;;5027329;28;20213;-77
2022/01/26 10:53:49;;;;;;;18.37;8.80;;;;;;;;;;5012520;28;20299;-78
2022/01/26 10:56:15;;;;;;;18.40;8.30;;;;;;;;;;5027955;28;20216;-79
2022/01/26 10:58:42;;;;;;;19.87;10.13;;;;;;;;;;5027885;28;20602;-79
2022/01/26 11:01:08;;;;;;;18.83;9.00;;;;;;;;;;5027613;28;20185;-78
2022/01/26 11:03:34;;;;;;;19.33;9.97;;;;;;;;;;5012290;28;20180;-78
2022/01/26 11:06:01;;;;;;;22.67;10.80;;;;;;;;;;5027376;28;20206;-78
2022/01/26 11:08:28;;;;;;;23.80;12.87;;;;;;;;;;5027832;28;20618;-78
2022/01/26 11:10:54;;;;;;;23.13;10.57;;;;;;;;;;5027735;28;20190;-78
2022/01/26 11:13:26;;;;;;;22.87;11.23;;;;;;;;;;5027334;28;20208;-79
2022/01/26 11:15:52;;;;;;;23.47;11.70;;;;;;;;;;5027399;28;20218;-79
2022/01/26 11:18:27;;;;;;;22.37;11.20;;;;;;;;;;5027656;28;20170;-78
2022/01/26 11:20:54;;;;;;;22.43;10.90;;;;;;;;;;5027397;28;20181;-78
2022/01/26 11:23:21;;;;;;;25.53;11.67;;;;;;;;;;5027354;28;20646;-78
2022/01/26 11:25:49;;;;;;;25.40;11.77;;;;;;;;;;5027477;28;20201;-79
2022/01/26 11:28:23;;;;;;;21.23;10.73;;;;;;;;;;5027573;28;20183;-78
2022/01/26 11:30:50;;;;;;;20.57;9.87;;;;;;;;;;5027376;28;20216;-78
2022/01/26 11:33:25;;;;;;;21.23;10.10;;;;;;;;;;5029943;28;20654;-78
2022/01/26 11:35:52;;;;;;;21.87;10.93;;;;;;;;;;5031094;28;20205;-78
2022/01/26 11:47:10;;;;;;;23.80;12.27;;;;;;;;;;5016189;28;20258;-78
2022/01/26 11:49:37;;;;;;;22.67;11.20;;;;;;;;;;5031147;28;20649;-78
2022/01/26 11:52:04;;;;;;;25.13;11.60;;;;;;;;;;5031206;28;20177;-78
2022/01/26 11:55:09;;;;;;;26.93;12.07;;;;;;;;;;5030661;28;20312;-78
2022/01/26 11:57:42;;;;;;;23.93;12.30;;;;;;;;;;5031249;28;20185;-78
2022/01/26 12:00:12;;;;;;;26.50;11.57;;;;;;;;;;5030851;28;20724;-78
2022/01/26 12:05:07;;;;;;;26.53;13.33;;;;;;;;;;5015024;28;20268;-78
2022/01/26 12:07:33;;;;;;;30.40;14.47;;;;;;;;;;5030673;28;20652;-78
2022/01/26 12:10:03;;;;;;;25.40;12.70;;;;;;;;;;5030802;28;20189;-78
2022/01/26 12:12:30;;;;;;;23.97;11.67;;;;;;;;;;5030948;28;20175;-78
2022/01/26 12:15:02;;;;;;;29.10;13.30;;;;;;;;;;5030221;28;20644;-78
2022/01/26 12:17:33;;;;;;;28.03;13.03;;;;;;;;;;5030881;28;20265;-78
2022/01/26 12:34:24;;;;;;;24.10;12.03;;;;;;;;;;5028090;28;20185;-79
2022/01/26 12:37:06;;;;;;;24.33;11.93;;;;;;;;;;5014925;28;20226;-78
2022/01/26 12:42:36;;;;;;;25.63;11.80;;;;;;;;;;5028199;28;20194;-78
2022/01/26 12:45:04;;;;;;;26.13;13.03;;;;;;;;;;5014021;28;20194;-78
2022/01/26 12:47:33;;;;;;;30.30;14.07;;;;;;;;;;5030162;28;20178;-78
2022/01/26 12:49:59;;;;;;;31.73;13.40;;;;;;;;;;5030083;28;20581;-79
2022/01/26 12:52:26;;;;;;;29.77;13.23;;;;;;;;;;5030118;28;20175;-79
2022/01/26 12:54:52;;;;;;;28.37;13.93;;;;;;;;;;5030193;28;20210;-79
2022/01/26 12:57:18;;;;;;;35.07;14.73;;;;;;;;;;5014540;28;20179;-79
2022/01/26 12:59:44;;;;;;;30.87;14.47;;;;;;;;;;5029956;28;20194;-79
2022/01/26 13:02:11;;;;;;;34.67;13.83;;;;;;;;;;5030188;28;20181;-79
2022/01/26 13:04:37;;;;;;;27.23;13.53;;;;;;;;;;5029557;28;20263;-79
2022/01/26 13:07:04;;;;;;;31.40;14.80;;;;;;;;;;5029781;28;20186;-79
2022/01/26 13:09:38;;;;;;;33.87;14.73;;;;;;;;;;5014428;28;20171;-79
2022/01/26 13:12:04;;;;;;;31.13;14.80;;;;;;;;;;5029655;28;20233;-79
2022/01/26 13:14:38;;;;;;;33.83;16.20;;;;;;;;;;5029350;28;20226;-79
2022/01/26 13:19:38;;;;;;;30.60;14.93;;;;;;;;;;5014343;28;20186;-79
2022/01/26 13:22:29;;;;;;;30.90;14.63;;;;;;;;;;5029775;28;20179;-79
2022/01/26 13:25:09;;;;;;;30.33;13.20;;;;;;;;;;5013794;28;20681;-79
2022/01/26 13:30:45;;;;;;;32.87;14.53;;;;;;;;;;5029336;28;20179;-78
2022/01/26 13:33:25;;;;;;;28.87;15.03;;;;;;;;;;5013989;28;20261;-78
2022/01/26 13:36:27;;;;;;;27.40;13.73;;;;;;;;;;5026477;28;20217;-78
2022/01/26 13:59:32;;;;;;;29.70;14.93;;;;;;;;;;5021680;28;20182;-78
2022/01/26 14:01:59;;;;;;;33.77;16.83;;;;;;;;;;5028633;28;20185;-78
2022/01/26 14:04:25;;;;;;;36.30;15.97;;;;;;;;;;5028506;28;20217;-78
2022/01/26 14:06:51;;;;;;;35.93;15.80;;;;;;;;;;5028521;28;20261;-78
2022/01/26 14:09:42;;;;;;;35.63;15.53;;;;;;;;;;5028287;28;20210;-77
2022/01/26 14:12:15;;;;;;;34.93;15.73;;;;;;;;;;5028978;28;20171;-77
2022/01/26 14:14:44;;;;;;;33.90;14.80;;;;;;;;;;5027951;28;20209;-77
2022/01/26 14:17:15;;;;;;;29.73;12.07;;;;;;;;;;5028366;28;20712;-76
2022/01/26 14:27:52;;;;;;;36.10;16.77;;;;;;;;;;5013132;28;20175;-78
2022/01/26 14:30:32;;;;;;;41.67;17.83;;;;;;;;;;5028248;28;20184;-77
2022/01/26 14:33:16;;;;;;;39.10;16.90;;;;;;;;;;5028077;28;20273;-77
2022/01/26 14:36:17;;;;;;;59.37;27.10;;;;;;;;;;5027930;28;20722;-77
2022/01/26 14:54:32;;;;;;;45.07;18.40;;;;;;;;;;5027529;28;20211;-77
2022/01/26 15:12:06;;;;;;;44.00;18.70;;;;;;;;;;5012575;28;20182;-77
2022/01/26 15:31:13;;;;;;;49.00;18.13;;;;;;;;;;5021022;28;20197;-77
2022/01/26 15:33:35;;;;;;;50.43;19.40;;;;;;;;;;5009485;28;20185;-77
2022/01/26 15:40:05;;;;;;;49.40;17.63;;;;;;;;;;5015112;28;20225;-77
2022/01/26 16:17:08;;;;;;;55.63;20.80;;;;;;;;;;4991842;28;20363;-77
2022/01/26 16:26:21;;;;;;;49.17;19.10;;;;;;;;;;5015510;28;20163;-76
2022/01/26 17:46:58;;;;;;;45.03;17.10;;;;;;;;;;5013345;28;20182;-77
2022/01/26 18:33:13;;;;;;;40.53;15.73;;;;;;;;;;5012397;28;20174;-77
2022/01/26 18:46:25;;;;;;;34.60;14.63;;;;;;;;;;5012246;28;20206;-76
2022/01/26 18:49:21;;;;;;;37.57;14.50;;;;;;;;;;5012676;28;20183;-76
2022/01/26 18:51:55;;;;;;;32.87;14.43;;;;;;;;;;5012545;28;20210;-77
2022/01/26 18:54:24;;;;;;;38.97;14.10;;;;;;;;;;5011746;28;20210;-77
2022/01/26 18:56:51;;;;;;;35.60;14.13;;;;;;;;;;5027791;28;20234;-77
2022/01/26 18:59:22;;;;;;;37.33;14.67;;;;;;;;;;5027606;28;20179;-76
2022/01/26 19:01:48;;;;;;;42.23;19.17;;;;;;;;;;5027799;28;20642;-76
2022/01/26 19:04:17;;;;;;;36.07;15.47;;;;;;;;;;5010901;28;20665;-76
2022/01/26 19:06:49;;;;;;;33.03;15.47;;;;;;;;;;5027805;28;20179;-76
2022/01/26 19:09:18;;;;;;;34.90;14.27;;;;;;;;;;4996013;28;20274;-77
2022/01/26 19:11:44;;;;;;;34.60;15.27;;;;;;;;;;5027619;28;20175;-77
2022/01/26 19:14:10;;;;;;;34.67;15.13;;;;;;;;;;4994623;28;20260;-77
2022/01/26 19:16:43;;;;;;;30.97;12.50;;;;;;;;;;5012130;28;20199;-77
2022/01/26 19:26:51;;;;;;;30.50;13.27;;;;;;;;;;5012394;28;20557;-77
2022/01/26 19:29:49;;;;;;;32.97;15.10;;;;;;;;;;5010924;28;20183;-76
2022/01/26 19:53:26;;;;;;;36.80;14.63;;;;;;;;;;4991476;28;20262;-79
2022/01/26 19:55:52;;;;;;;33.83;13.77;;;;;;;;;;5000073;28;20261;-79
2022/01/26 19:58:19;;;;;;;34.57;15.20;;;;;;;;;;5000548;28;20270;-79
2022/01/26 20:00:46;;;;;;;28.77;12.67;;;;;;;;;;5016323;28;20190;-79
2022/01/26 20:03:13;;;;;;;33.37;15.10;;;;;;;;;;5016489;28;20179;-79
2022/01/26 20:05:39;;;;;;;29.10;13.47;;;;;;;;;;5016298;28;20191;-79
2022/01/26 20:10:56;;;;;;;26.13;13.20;;;;;;;;;;5017308;28;20189;-79
2022/01/26 20:13:26;;;;;;;26.27;11.90;;;;;;;;;;5000168;28;20189;-79
2022/01/26 20:15:52;;;;;;;25.03;11.13;;;;;;;;;;5016187;28;20207;-79
2022/01/26 20:18:20;;;;;;;26.40;12.47;;;;;;;;;;5015665;28;20191;-79
2022/01/26 20:20:46;;;;;;;24.70;12.23;;;;;;;;;;5016166;28;20187;-79
2022/01/26 20:23:14;;;;;;;27.13;11.97;;;;;;;;;;5016145;28;20168;-79
2022/01/26 20:25:41;;;;;;;26.80;12.67;;;;;;;;;;5000085;28;20269;-79
2022/01/26 20:28:10;;;;;;;27.37;12.20;;;;;;;;;;5015494;28;20262;-79
2022/01/26 20:30:39;;;;;;;26.27;11.50;;;;;;;;;;5016058;28;20274;-79
2022/01/26 20:33:05;;;;;;;25.50;11.83;;;;;;;;;;5015931;28;20686;-79
2022/01/26 20:35:31;;;;;;;26.97;12.17;;;;;;;;;;5015348;28;20208;-79
2022/01/26 20:37:57;;;;;;;26.50;12.57;;;;;;;;;;5015543;28;20175;-79
2022/01/26 20:40:24;;;;;;;31.33;13.57;;;;;;;;;;5000189;28;20218;-79
2022/01/26 20:42:50;;;;;;;33.90;14.63;;;;;;;;;;5015774;28;20175;-79
2022/01/26 20:45:20;;;;;;;30.30;14.13;;;;;;;;;;5015397;28;20195;-79
2022/01/26 20:47:47;;;;;;;24.90;12.57;;;;;;;;;;4999830;28;20601;-79
2022/01/26 20:50:13;;;;;;;27.30;12.03;;;;;;;;;;4999066;28;20207;-78
2022/01/26 20:52:39;;;;;;;26.97;12.30;;;;;;;;;;5015324;28;20222;-79
2022/01/26 20:55:06;;;;;;;33.97;13.63;;;;;;;;;;4998567;28;20225;-79
2022/01/26 20:57:32;;;;;;;31.77;13.70;;;;;;;;;;4998893;28;20207;-79
2022/01/26 20:59:58;;;;;;;34.87;15.87;;;;;;;;;;5015213;28;20187;-79
2022/01/26 21:02:25;;;;;;;30.17;13.20;;;;;;;;;;4999004;28;20186;-79
2022/01/26 21:04:51;;;;;;;29.10;12.83;;;;;;;;;;5014472;28;20207;-79
2022/01/26 21:07:17;;;;;;;33.43;14.93;;;;;;;;;;5014341;28;20187;-79
2022/01/26 21:09:43;;;;;;;32.87;14.07;;;;;;;;;;5013375;28;20188;-79
2022/01/26 21:12:09;;;;;;;32.90;14.43;;;;;;;;;;5013349;28;20607;-79
2022/01/26 21:14:35;;;;;;;27.83;13.73;;;;;;;;;;5014309;28;20285;-79
2022/01/26 21:17:02;;;;;;;39.50;17.37;;;;;;;;;;4996847;28;20206;-79
2022/01/26 21:19:31;;;;;;;44.43;18.67;;;;;;;;;;5011641;28;20245;-79
2022/01/26 21:22:01;;;;;;;25.27;11.57;;;;;;;;;;5012032;28;20209;-79
2022/01/26 21:24:27;;;;;;;34.87;15.70;;;;;;;;;;5012689;28;20222;-79
2022/01/26 21:26:53;;;;;;;31.93;14.67;;;;;;;;;;5012855;28;20586;-79
2022/01/26 21:29:19;;;;;;;29.60;13.87;;;;;;;;;;5013095;28;20187;-79
2022/01/26 21:31:45;;;;;;;32.17;14.30;;;;;;;;;;5012844;28;20190;-79
2022/01/26 21:34:11;;;;;;;30.90;14.83;;;;;;;;;;5014274;28;20643;-79
2022/01/26 21:36:37;;;;;;;37.00;15.33;;;;;;;;;;5012666;28;20228;-79
2022/01/26 21:39:08;;;;;;;26.43;12.03;;;;;;;;;;5013020;28;20305;-79
2022/01/26 21:41:34;;;;;;;31.03;13.67;;;;;;;;;;5012615;28;20179;-79
2022/01/26 21:44:00;;;;;;;26.97;13.13;;;;;;;;;;4996195;28;20217;-79